Time;durP1;ratioP1;P1;durP2;ratioP2;P2;SDS_P1;SDS_P2;PMS_P1;PMS_P2;Temp;Humidity;BMP_temperature;BMP_pressure;BME280_temperature;BME280_humidity;BME280_pressure;Samples;Min_cycle;Max_cycle;Signal;HPM_P1;HPM_P2
2022/12/25 00:01:20;;;;;;;2.90;2.60;;;;;;;;;;5113441;28;20199;-80
2022/12/25 00:03:47;;;;;;;2.23;1.90;;;;;;;;;;5113356;28;20272;-82
2022/12/25 00:06:14;;;;;;;2.00;1.50;;;;;;;;;;5110446;28;20196;-79
2022/12/25 00:08:42;;;;;;;4.23;1.83;;;;;;;;;;5103254;28;20201;-79
2022/12/25 00:11:11;;;;;;;4.17;2.03;;;;;;;;;;5110045;28;20245;-80
2022/12/25 00:13:38;;;;;;;2.97;1.63;;;;;;;;;;5113434;28;20200;-80
2022/12/25 00:16:07;;;;;;;1.80;1.70;;;;;;;;;;5112302;28;20211;-80
2022/12/25 00:18:34;;;;;;;1.73;1.63;;;;;;;;;;5101443;28;20215;-80
2022/12/25 00:21:03;;;;;;;2.00;1.80;;;;;;;;;;5111226;28;20208;-80
2022/12/25 00:23:30;;;;;;;3.40;2.03;;;;;;;;;;5113109;28;20284;-80
2022/12/25 00:25:58;;;;;;;3.97;2.17;;;;;;;;;;5106831;28;20207;-80
2022/12/25 00:28:25;;;;;;;2.00;1.80;;;;;;;;;;5109865;28;20603;-80
2022/12/25 00:30:52;;;;;;;3.50;1.80;;;;;;;;;;5108036;28;20631;-80
2022/12/25 00:33:19;;;;;;;2.53;2.23;;;;;;;;;;5106035;28;20611;-80
2022/12/25 00:35:57;;;;;;;2.73;1.90;;;;;;;;;;5112593;28;20729;-87
2022/12/25 00:38:24;;;;;;;2.93;2.07;;;;;;;;;;5112573;27;20203;-79
2022/12/25 00:40:51;;;;;;;2.00;1.63;;;;;;;;;;5112850;28;20257;-80
2022/12/25 00:43:19;;;;;;;4.00;1.97;;;;;;;;;;5112383;28;20620;-81
2022/12/25 00:45:54;;;;;;;3.23;2.27;;;;;;;;;;5112615;28;20196;-80
2022/12/25 00:48:20;;;;;;;2.20;2.00;;;;;;;;;;5109839;28;20207;-80
2022/12/25 00:50:47;;;;;;;3.07;2.63;;;;;;;;;;5108927;28;20199;-81
2022/12/25 00:53:14;;;;;;;6.73;2.20;;;;;;;;;;5109733;28;20189;-80
2022/12/25 00:55:41;;;;;;;2.90;2.40;;;;;;;;;;5101883;28;20195;-81
2022/12/25 00:58:07;;;;;;;5.17;2.70;;;;;;;;;;5111972;28;20191;-80
2022/12/25 01:00:36;;;;;;;2.47;2.27;;;;;;;;;;5112072;28;20207;-80
2022/12/25 01:03:02;;;;;;;3.53;2.40;;;;;;;;;;5111892;27;20260;-80
2022/12/25 01:05:29;;;;;;;3.30;2.40;;;;;;;;;;5111798;28;20658;-79
2022/12/25 01:07:56;;;;;;;3.00;2.03;;;;;;;;;;5112574;28;20199;-79
2022/12/25 01:10:21;;;;;;;3.00;2.57;;;;;;;;;;5112482;28;20196;-80
2022/12/25 01:12:49;;;;;;;3.07;2.43;;;;;;;;;;5112135;28;20594;-80
2022/12/25 01:15:16;;;;;;;5.27;3.60;;;;;;;;;;5111663;28;20618;-80
2022/12/25 01:17:45;;;;;;;4.07;3.00;;;;;;;;;;5111839;28;20192;-80
2022/12/25 01:20:12;;;;;;;3.97;2.83;;;;;;;;;;5111901;28;20203;-79
2022/12/25 01:22:39;;;;;;;4.37;3.23;;;;;;;;;;5111741;28;20199;-80
2022/12/25 01:25:08;;;;;;;3.73;2.77;;;;;;;;;;5111741;28;20218;-79
2022/12/25 01:27:35;;;;;;;6.10;3.07;;;;;;;;;;5111615;28;20239;-81
2022/12/25 01:30:02;;;;;;;4.07;3.10;;;;;;;;;;5111756;28;20219;-80
2022/12/25 01:32:28;;;;;;;4.10;3.60;;;;;;;;;;5107464;28;20204;-83
2022/12/25 01:34:56;;;;;;;4.73;3.70;;;;;;;;;;5111748;28;20256;-80
2022/12/25 01:37:24;;;;;;;4.67;3.27;;;;;;;;;;5098950;28;20204;-81
2022/12/25 01:39:51;;;;;;;2.50;2.30;;;;;;;;;;5097820;28;20298;-81
2022/12/25 01:42:19;;;;;;;5.17;3.37;;;;;;;;;;5112017;27;20240;-80
2022/12/25 01:45:28;;;;;;;3.40;3.00;;;;;;;;;;5111116;28;20229;-79
2022/12/25 01:47:54;;;;;;;5.47;3.17;;;;;;;;;;5091279;28;20200;-81
2022/12/25 01:50:23;;;;;;;6.07;3.43;;;;;;;;;;5107603;28;20203;-81
2022/12/25 01:52:50;;;;;;;3.63;2.30;;;;;;;;;;5110519;28;20195;-82
2022/12/25 01:55:17;;;;;;;3.83;2.70;;;;;;;;;;5098588;28;20207;-80
2022/12/25 01:57:44;;;;;;;3.13;2.50;;;;;;;;;;5108712;28;20589;-80
2022/12/25 02:00:15;;;;;;;2.20;2.00;;;;;;;;;;5104308;28;20200;-79
2022/12/25 02:02:42;;;;;;;3.13;2.00;;;;;;;;;;5105035;28;20207;-79
2022/12/25 02:05:13;;;;;;;2.40;2.20;;;;;;;;;;5111162;28;20222;-79
2022/12/25 02:07:42;;;;;;;2.00;1.80;;;;;;;;;;5110853;28;20264;-79
2022/12/25 02:10:10;;;;;;;2.63;2.30;;;;;;;;;;5103362;28;20215;-80
2022/12/25 02:12:37;;;;;;;4.87;2.20;;;;;;;;;;5111118;28;20195;-80
2022/12/25 02:15:07;;;;;;;5.47;2.10;;;;;;;;;;5110695;28;20205;-80
2022/12/25 02:17:38;;;;;;;4.07;2.23;;;;;;;;;;5111003;28;20694;-79
2022/12/25 02:20:29;;;;;;;2.07;1.70;;;;;;;;;;5110707;28;20200;-79
2022/12/25 02:23:05;;;;;;;3.07;2.00;;;;;;;;;;5110837;28;20203;-79
2022/12/25 02:25:43;;;;;;;4.17;2.17;;;;;;;;;;5110510;28;20218;-79
2022/12/25 02:28:15;;;;;;;3.17;2.30;;;;;;;;;;5110527;28;20293;-79
2022/12/25 02:30:44;;;;;;;1.80;1.60;;;;;;;;;;5110857;28;20215;-80
2022/12/25 02:36:01;;;;;;;2.40;2.20;;;;;;;;;;5098941;28;20219;-81
2022/12/25 02:38:32;;;;;;;2.50;2.23;;;;;;;;;;5108848;28;20194;-80
2022/12/25 02:41:01;;;;;;;2.40;2.20;;;;;;;;;;5100574;28;20199;-81
2022/12/25 03:08:28;;;;;;;3.07;2.47;;;;;;;;;;5108828;28;20206;-80
2022/12/25 03:13:45;;;;;;;2.00;1.87;;;;;;;;;;5114569;28;20307;-80
2022/12/25 03:27:24;;;;;;;3.03;2.77;;;;;;;;;;5111695;28;20644;-82
2022/12/25 03:32:47;;;;;;;2.87;2.50;;;;;;;;;;5056832;27;20625;-81
2022/12/25 03:35:24;;;;;;;2.20;1.90;;;;;;;;;;5114711;28;20260;-78
2022/12/25 04:38:32;;;;;;;3.17;2.87;;;;;;;;;;5108566;28;20260;-79
2022/12/25 04:40:59;;;;;;;5.00;2.93;;;;;;;;;;5116835;27;20253;-79
2022/12/25 04:43:26;;;;;;;3.90;2.73;;;;;;;;;;5122334;27;20610;-79
2022/12/25 04:45:53;;;;;;;3.30;2.90;;;;;;;;;;5117918;27;20223;-79
2022/12/25 04:48:20;;;;;;;6.27;3.13;;;;;;;;;;5125413;27;20244;-80
2022/12/25 04:50:47;;;;;;;4.00;2.77;;;;;;;;;;5112507;27;20670;-80
2022/12/25 04:53:14;;;;;;;3.97;2.83;;;;;;;;;;5106814;27;20222;-80
2022/12/25 04:55:42;;;;;;;3.03;2.73;;;;;;;;;;5111303;28;20199;-80
2022/12/25 04:58:09;;;;;;;4.33;2.47;;;;;;;;;;5112312;28;20207;-80
2022/12/25 05:00:36;;;;;;;3.70;3.00;;;;;;;;;;5111638;27;20201;-80
2022/12/25 05:03:03;;;;;;;3.07;2.13;;;;;;;;;;5112688;27;20673;-81
2022/12/25 05:05:29;;;;;;;4.47;2.53;;;;;;;;;;5114602;27;20632;-81
2022/12/25 05:07:56;;;;;;;2.20;2.03;;;;;;;;;;5108177;27;20256;-80
2022/12/25 05:10:23;;;;;;;2.50;2.30;;;;;;;;;;5121768;27;20195;-80
2022/12/25 05:12:51;;;;;;;6.43;3.33;;;;;;;;;;5112736;27;20199;-82
2022/12/25 05:15:18;;;;;;;4.10;3.70;;;;;;;;;;5112119;28;20230;-81
2022/12/25 05:17:45;;;;;;;7.83;4.33;;;;;;;;;;5111958;28;20210;-79
2022/12/25 05:20:12;;;;;;;3.93;3.47;;;;;;;;;;5098105;28;20262;-81
2022/12/25 05:22:38;;;;;;;2.30;2.10;;;;;;;;;;5103763;28;20199;-80
2022/12/25 05:25:08;;;;;;;4.20;3.00;;;;;;;;;;5106939;28;20222;-80
2022/12/25 05:27:35;;;;;;;3.07;2.60;;;;;;;;;;5098318;28;20207;-81
2022/12/25 05:30:06;;;;;;;2.20;2.00;;;;;;;;;;5106269;28;20203;-81
2022/12/25 05:32:33;;;;;;;4.60;2.33;;;;;;;;;;5111921;28;20600;-80
2022/12/25 05:35:00;;;;;;;2.80;2.30;;;;;;;;;;5111941;28;20211;-83
2022/12/25 05:37:27;;;;;;;3.70;2.60;;;;;;;;;;5112020;28;20196;-79
2022/12/25 05:39:53;;;;;;;2.33;2.13;;;;;;;;;;5097640;27;20678;-79
2022/12/25 05:42:20;;;;;;;4.17;1.70;;;;;;;;;;5103416;28;20192;-81
2022/12/25 05:44:47;;;;;;;2.30;2.07;;;;;;;;;;5099787;28;20220;-81
2022/12/25 05:47:15;;;;;;;2.53;2.30;;;;;;;;;;5097476;28;20249;-81
2022/12/25 05:49:43;;;;;;;3.90;2.30;;;;;;;;;;5103212;28;20238;-79
2022/12/25 05:52:10;;;;;;;5.23;1.60;;;;;;;;;;5099094;28;20200;-82
2022/12/25 05:54:36;;;;;;;4.83;2.30;;;;;;;;;;5104290;28;20265;-84
2022/12/25 05:57:03;;;;;;;2.80;2.27;;;;;;;;;;5110968;28;20206;-81
2022/12/25 05:59:30;;;;;;;3.70;2.50;;;;;;;;;;5110506;28;20203;-83
2022/12/25 06:01:57;;;;;;;4.80;2.83;;;;;;;;;;5103412;28;20200;-80
2022/12/25 06:04:27;;;;;;;3.63;2.30;;;;;;;;;;5108833;27;20201;-80
2022/12/25 06:06:54;;;;;;;4.53;2.53;;;;;;;;;;5107707;28;20215;-79
2022/12/25 06:09:20;;;;;;;2.80;2.60;;;;;;;;;;5111224;28;20616;-80
2022/12/25 06:11:47;;;;;;;2.30;2.10;;;;;;;;;;5110564;28;20203;-81
2022/12/25 06:14:15;;;;;;;3.03;2.10;;;;;;;;;;5101872;27;20195;-79
2022/12/25 06:16:42;;;;;;;1.90;1.73;;;;;;;;;;5117530;27;20709;-80
2022/12/25 06:19:09;;;;;;;2.90;2.70;;;;;;;;;;5110867;28;20199;-81
2022/12/25 06:21:37;;;;;;;2.53;2.23;;;;;;;;;;5110637;28;20708;-83
2022/12/25 06:24:04;;;;;;;4.97;2.30;;;;;;;;;;5103470;28;20675;-83
2022/12/25 06:26:31;;;;;;;3.53;2.03;;;;;;;;;;5084129;28;20231;-84
2022/12/25 06:28:58;;;;;;;2.80;1.87;;;;;;;;;;5111060;28;20199;-84
2022/12/25 06:31:26;;;;;;;2.30;2.10;;;;;;;;;;5109105;28;20208;-83
2022/12/25 06:33:53;;;;;;;5.50;3.20;;;;;;;;;;5098967;28;20268;-83
2022/12/25 06:36:22;;;;;;;1.67;1.57;;;;;;;;;;5108761;28;20630;-83
2022/12/25 06:38:51;;;;;;;4.07;1.70;;;;;;;;;;5101656;28;20657;-82
2022/12/25 06:41:19;;;;;;;3.17;2.10;;;;;;;;;;5114901;28;20199;-83
2022/12/25 06:43:48;;;;;;;3.73;2.30;;;;;;;;;;5115222;28;20199;-83
2022/12/25 06:46:15;;;;;;;3.63;2.00;;;;;;;;;;5114610;27;20218;-82
2022/12/25 06:48:46;;;;;;;2.67;2.47;;;;;;;;;;5108956;27;20586;-83
2022/12/25 06:51:14;;;;;;;7.13;3.00;;;;;;;;;;5109693;28;20219;-83
2022/12/25 06:53:41;;;;;;;2.60;2.40;;;;;;;;;;5100040;28;20675;-81
2022/12/25 06:56:17;;;;;;;3.10;2.50;;;;;;;;;;5113081;28;20221;-83
2022/12/25 06:58:45;;;;;;;4.37;2.50;;;;;;;;;;5114465;28;20203;-82
2022/12/25 07:01:16;;;;;;;4.73;2.53;;;;;;;;;;5105085;27;20204;-83
2022/12/25 07:03:44;;;;;;;2.13;1.80;;;;;;;;;;5103073;28;20218;-83
2022/12/25 07:06:11;;;;;;;2.83;2.30;;;;;;;;;;5104718;28;20296;-82
2022/12/25 07:08:38;;;;;;;2.77;2.07;;;;;;;;;;5101114;28;20219;-82
2022/12/25 07:11:07;;;;;;;3.03;2.73;;;;;;;;;;5100682;27;20193;-83
2022/12/25 07:13:35;;;;;;;2.50;2.27;;;;;;;;;;5106229;28;20215;-93
2022/12/25 07:16:06;;;;;;;2.43;2.13;;;;;;;;;;5106682;28;20228;-91
2022/12/25 07:18:34;;;;;;;3.33;2.40;;;;;;;;;;5105851;28;20251;-89
2022/12/25 07:21:06;;;;;;;2.50;2.30;;;;;;;;;;5112747;28;20200;-81
2022/12/25 07:23:33;;;;;;;2.87;2.40;;;;;;;;;;5105974;28;20647;-82
2022/12/25 07:26:01;;;;;;;2.70;2.40;;;;;;;;;;5111226;28;20223;-82
2022/12/25 07:28:28;;;;;;;3.87;2.20;;;;;;;;;;5113292;28;20211;-81
2022/12/25 07:31:01;;;;;;;2.20;1.60;;;;;;;;;;5112522;28;20203;-82
2022/12/25 07:33:27;;;;;;;3.60;2.83;;;;;;;;;;5113879;28;20678;-81
2022/12/25 07:35:54;;;;;;;2.47;2.27;;;;;;;;;;5112822;28;20200;-81
2022/12/25 07:38:21;;;;;;;2.90;2.60;;;;;;;;;;5112597;28;20255;-79
2022/12/25 07:40:48;;;;;;;2.57;2.23;;;;;;;;;;5103728;28;20222;-83
2022/12/25 07:43:15;;;;;;;2.40;2.20;;;;;;;;;;5106950;28;20203;-79
2022/12/25 07:45:42;;;;;;;1.87;1.67;;;;;;;;;;5112643;28;20653;-80
2022/12/25 07:48:12;;;;;;;2.70;2.03;;;;;;;;;;5103672;28;20194;-82
2022/12/25 07:50:39;;;;;;;4.03;1.70;;;;;;;;;;5112720;28;20199;-80
2022/12/25 07:53:06;;;;;;;4.03;2.10;;;;;;;;;;5113604;28;20204;-81
2022/12/25 07:55:33;;;;;;;3.50;2.47;;;;;;;;;;5114110;27;20196;-81
2022/12/25 07:58:00;;;;;;;3.47;3.17;;;;;;;;;;5111434;28;20203;-81
2022/12/25 08:00:31;;;;;;;2.57;2.37;;;;;;;;;;5100353;28;20196;-82
2022/12/25 08:02:58;;;;;;;2.60;2.40;;;;;;;;;;5102733;28;20194;-80
2022/12/25 08:05:26;;;;;;;2.33;2.13;;;;;;;;;;5109658;27;20632;-81
2022/12/25 08:07:53;;;;;;;3.20;2.23;;;;;;;;;;5107937;28;20199;-83
2022/12/25 08:10:21;;;;;;;12.07;6.23;;;;;;;;;;5113083;27;20840;-83
2022/12/25 08:12:50;;;;;;;9.23;5.00;;;;;;;;;;5098303;28;20200;-85
2022/12/25 08:15:17;;;;;;;6.50;3.90;;;;;;;;;;5111738;28;20223;-82
2022/12/25 08:17:44;;;;;;;4.27;2.73;;;;;;;;;;5109507;28;20200;-82
2022/12/25 08:20:12;;;;;;;3.37;2.53;;;;;;;;;;5117691;27;20194;-81
2022/12/25 08:22:40;;;;;;;2.77;2.07;;;;;;;;;;5115188;27;20199;-81
2022/12/25 08:25:08;;;;;;;2.60;1.80;;;;;;;;;;5102620;28;20197;-83
2022/12/25 08:27:35;;;;;;;12.70;6.77;;;;;;;;;;5106634;28;20724;-81
2022/12/25 08:30:03;;;;;;;5.47;3.07;;;;;;;;;;5091586;28;20212;-81
2022/12/25 08:32:32;;;;;;;3.93;2.40;;;;;;;;;;5107626;28;20196;-81
2022/12/25 08:34:59;;;;;;;4.57;2.50;;;;;;;;;;5104915;28;20682;-83
2022/12/25 08:37:27;;;;;;;3.60;2.30;;;;;;;;;;5112039;28;20210;-84
2022/12/25 08:39:55;;;;;;;3.77;2.40;;;;;;;;;;5111459;28;20207;-84
2022/12/25 08:42:22;;;;;;;2.70;2.13;;;;;;;;;;5108581;28;20687;-81
2022/12/25 08:44:49;;;;;;;3.37;2.10;;;;;;;;;;5111029;28;20203;-82
2022/12/25 08:47:17;;;;;;;2.13;1.93;;;;;;;;;;5099562;28;20219;-82
2022/12/25 08:49:44;;;;;;;5.83;3.53;;;;;;;;;;5091611;27;20760;-84
2022/12/25 08:52:10;;;;;;;5.07;3.17;;;;;;;;;;5108945;27;20195;-83
2022/12/25 08:54:38;;;;;;;7.17;2.70;;;;;;;;;;5123420;27;20207;-82
2022/12/25 08:57:06;;;;;;;17.50;5.50;;;;;;;;;;5112873;28;20192;-82
2022/12/25 08:59:33;;;;;;;9.13;3.57;;;;;;;;;;5111184;28;20709;-82
2022/12/25 09:02:03;;;;;;;4.73;2.70;;;;;;;;;;5111144;28;20199;-84
2022/12/25 09:04:32;;;;;;;3.73;2.83;;;;;;;;;;5104335;28;20287;-83
2022/12/25 09:06:59;;;;;;;4.17;2.00;;;;;;;;;;5111938;28;20227;-83
2022/12/25 09:09:27;;;;;;;3.20;2.00;;;;;;;;;;5105722;28;20730;-82
2022/12/25 09:11:54;;;;;;;2.83;2.00;;;;;;;;;;5108856;28;20208;-81
2022/12/25 09:14:31;;;;;;;3.80;2.30;;;;;;;;;;5106182;28;20208;-81
2022/12/25 09:16:58;;;;;;;4.80;2.13;;;;;;;;;;5103744;28;20231;-83
2022/12/25 09:19:26;;;;;;;3.30;2.00;;;;;;;;;;5100530;28;20595;-83
2022/12/25 09:21:53;;;;;;;2.23;1.50;;;;;;;;;;5104245;28;20567;-82
2022/12/25 09:24:20;;;;;;;2.53;1.30;;;;;;;;;;5111920;28;20192;-81
2022/12/25 09:26:47;;;;;;;1.47;1.37;;;;;;;;;;5111931;27;20314;-81
2022/12/25 09:29:16;;;;;;;1.97;1.43;;;;;;;;;;5110193;27;20200;-82
2022/12/25 09:31:45;;;;;;;4.87;1.80;;;;;;;;;;5111608;28;20290;-82
2022/12/25 09:34:12;;;;;;;1.90;1.50;;;;;;;;;;5102356;28;20631;-82
2022/12/25 09:36:39;;;;;;;1.73;1.60;;;;;;;;;;5109456;28;20738;-82
2022/12/25 09:39:06;;;;;;;2.07;1.30;;;;;;;;;;5096996;28;20199;-85
2022/12/25 09:41:35;;;;;;;3.93;1.80;;;;;;;;;;5103881;27;20247;-83
2022/12/25 09:44:06;;;;;;;4.10;2.00;;;;;;;;;;5102245;27;20196;-83
2022/12/25 09:46:41;;;;;;;2.67;2.03;;;;;;;;;;5106477;27;20231;-82
2022/12/25 09:49:15;;;;;;;4.00;1.67;;;;;;;;;;5106674;28;20264;-82
2022/12/25 09:51:44;;;;;;;2.50;1.53;;;;;;;;;;5110426;28;20226;-83
2022/12/25 09:54:17;;;;;;;2.30;1.50;;;;;;;;;;5110783;28;20204;-83
2022/12/25 09:56:44;;;;;;;1.27;1.10;;;;;;;;;;5098209;28;20253;-82
2022/12/25 09:59:18;;;;;;;2.30;1.40;;;;;;;;;;5109840;27;20195;-83
2022/12/25 10:02:04;;;;;;;2.00;1.50;;;;;;;;;;5097399;28;20208;-82
2022/12/25 10:04:47;;;;;;;1.80;1.70;;;;;;;;;;5099844;28;20196;-82
2022/12/25 10:07:23;;;;;;;4.63;1.90;;;;;;;;;;5093959;28;20614;-83
2022/12/25 10:10:00;;;;;;;2.40;1.70;;;;;;;;;;5103165;28;20199;-82
2022/12/25 10:12:37;;;;;;;1.60;1.50;;;;;;;;;;5092704;28;20200;-83
2022/12/25 10:15:14;;;;;;;1.83;1.40;;;;;;;;;;5107031;28;20199;-83
2022/12/25 10:17:55;;;;;;;1.90;1.80;;;;;;;;;;5101607;28;20548;-84
2022/12/25 10:20:48;;;;;;;;;;;;;;;;;;;;;
2022/12/25 10:23:19;;;;;;;2.47;2.23;;;;;;;;;;5096543;28;20206;-84
2022/12/25 10:25:47;;;;;;;1.67;1.57;;;;;;;;;;5106927;28;20217;-83
2022/12/25 10:28:15;;;;;;;1.40;1.27;;;;;;;;;;5100613;28;20234;-83
2022/12/25 10:30:44;;;;;;;1.90;1.70;;;;;;;;;;5104874;28;20206;-83
2022/12/25 10:33:13;;;;;;;3.17;1.23;;;;;;;;;;5094727;28;20213;-83
2022/12/25 10:35:42;;;;;;;1.60;1.50;;;;;;;;;;5089716;28;20208;-83
2022/12/25 10:38:14;;;;;;;2.07;1.67;;;;;;;;;;5083897;28;20211;-83
2022/12/25 10:40:52;;;;;;;1.20;1.10;;;;;;;;;;5100856;28;20213;-85
2022/12/25 10:43:24;;;;;;;2.07;1.43;;;;;;;;;;5108955;28;20206;-83
2022/12/25 10:45:51;;;;;;;2.70;1.70;;;;;;;;;;5104682;28;20207;-83
2022/12/25 10:48:23;;;;;;;1.67;1.40;;;;;;;;;;5107183;28;20219;-84
2022/12/25 10:50:52;;;;;;;2.00;1.80;;;;;;;;;;5099542;28;20199;-82
2022/12/25 10:53:22;;;;;;;2.10;1.77;;;;;;;;;;5103889;28;20605;-82
2022/12/25 10:56:00;;;;;;;1.73;1.60;;;;;;;;;;5105382;28;20206;-82
2022/12/25 10:58:27;;;;;;;2.43;2.13;;;;;;;;;;5105770;28;20582;-82
2022/12/25 11:00:57;;;;;;;1.30;1.30;;;;;;;;;;5098577;28;20614;-82
2022/12/25 11:03:26;;;;;;;1.80;1.70;;;;;;;;;;5092292;28;20203;-84
2022/12/25 11:05:55;;;;;;;6.53;3.13;;;;;;;;;;5089686;28;20699;-84
2022/12/25 11:08:25;;;;;;;2.70;2.50;;;;;;;;;;5091997;28;20227;-84
2022/12/25 11:10:54;;;;;;;5.20;2.20;;;;;;;;;;5108315;28;20295;-82
2022/12/25 11:13:23;;;;;;;1.73;1.50;;;;;;;;;;5110433;28;20206;-84
2022/12/25 11:15:52;;;;;;;2.40;1.73;;;;;;;;;;5109300;28;20223;-83
2022/12/25 11:18:24;;;;;;;2.97;2.20;;;;;;;;;;5109472;28;20204;-84
2022/12/25 11:20:52;;;;;;;4.13;2.20;;;;;;;;;;5109510;28;20200;-83
2022/12/25 11:23:22;;;;;;;1.50;1.40;;;;;;;;;;5090019;28;20262;-83
2022/12/25 11:26:01;;;;;;;2.23;1.47;;;;;;;;;;5105843;28;20207;-82
2022/12/25 11:28:31;;;;;;;2.23;1.93;;;;;;;;;;5102248;28;20231;-83
2022/12/25 11:31:02;;;;;;;2.50;1.97;;;;;;;;;;5104322;28;20211;-83
2022/12/25 11:33:33;;;;;;;2.40;2.20;;;;;;;;;;5110045;27;20204;-82
2022/12/25 11:36:03;;;;;;;2.10;1.90;;;;;;;;;;5099779;28;20204;-82
2022/12/25 11:38:32;;;;;;;2.30;2.10;;;;;;;;;;5104543;28;20196;-82
2022/12/25 11:41:01;;;;;;;3.73;2.00;;;;;;;;;;5105892;28;20203;-83
2022/12/25 11:43:32;;;;;;;3.67;2.40;;;;;;;;;;5113815;28;20260;-82
2022/12/25 11:46:06;;;;;;;3.00;2.10;;;;;;;;;;5114187;28;20214;-82
2022/12/25 11:48:36;;;;;;;3.70;2.00;;;;;;;;;;5110981;27;20306;-82
2022/12/25 11:51:06;;;;;;;2.27;1.70;;;;;;;;;;5109758;28;20203;-83
2022/12/25 11:53:40;;;;;;;1.97;1.80;;;;;;;;;;5114663;28;20211;-82
2022/12/25 11:56:09;;;;;;;4.03;2.27;;;;;;;;;;5093247;28;20204;-82
2022/12/25 11:58:39;;;;;;;1.90;1.23;;;;;;;;;;5104577;28;20277;-83
2022/12/25 12:01:09;;;;;;;2.70;2.03;;;;;;;;;;5112615;28;20264;-83
2022/12/25 12:03:38;;;;;;;8.87;2.97;;;;;;;;;;5105190;28;20211;-84
2022/12/25 12:06:07;;;;;;;2.37;1.70;;;;;;;;;;5102183;28;20209;-83
2022/12/25 12:08:36;;;;;;;1.90;1.80;;;;;;;;;;5111836;27;20270;-82
2022/12/25 12:11:16;;;;;;;1.80;1.70;;;;;;;;;;5111882;28;20211;-82
2022/12/25 12:13:53;;;;;;;1.57;1.40;;;;;;;;;;5111699;28;20237;-83
2022/12/25 12:16:20;;;;;;;2.20;1.47;;;;;;;;;;5110062;27;20283;-82
2022/12/25 12:18:47;;;;;;;3.47;1.90;;;;;;;;;;5111817;28;20203;-81
2022/12/25 12:21:22;;;;;;;3.57;1.87;;;;;;;;;;5101678;27;20194;-82
2022/12/25 12:23:56;;;;;;;2.47;1.83;;;;;;;;;;5119647;27;20192;-83
2022/12/25 12:26:25;;;;;;;2.80;1.40;;;;;;;;;;5094144;28;20211;-82
2022/12/25 12:28:54;;;;;;;2.30;1.70;;;;;;;;;;5111647;28;20251;-82
2022/12/25 12:31:21;;;;;;;3.27;1.83;;;;;;;;;;5112299;28;20200;-82
2022/12/25 12:33:51;;;;;;;2.47;1.40;;;;;;;;;;5112033;28;20210;-82
2022/12/25 12:36:21;;;;;;;3.33;1.40;;;;;;;;;;5112080;28;20191;-82
2022/12/25 12:38:50;;;;;;;1.50;1.27;;;;;;;;;;5099425;28;20203;-82
2022/12/25 12:41:17;;;;;;;1.20;1.10;;;;;;;;;;5097514;28;20208;-82
2022/12/25 12:43:47;;;;;;;1.37;1.23;;;;;;;;;;5112526;28;20199;-82
2022/12/25 12:46:17;;;;;;;2.00;1.50;;;;;;;;;;5112620;28;20674;-82
2022/12/25 12:48:46;;;;;;;4.57;1.73;;;;;;;;;;5112796;28;20730;-82
2022/12/25 12:51:14;;;;;;;1.97;1.10;;;;;;;;;;5112904;28;20199;-82
2022/12/25 12:53:43;;;;;;;1.40;1.30;;;;;;;;;;5112837;28;20207;-81
2022/12/25 12:56:25;;;;;;;1.50;1.40;;;;;;;;;;5098531;28;20197;-82
2022/12/25 12:58:51;;;;;;;1.73;1.57;;;;;;;;;;5111328;28;20594;-82
2022/12/25 13:01:39;;;;;;;1.80;1.20;;;;;;;;;;5112445;28;20207;-82
2022/12/25 13:04:28;;;;;;;0.90;0.90;;;;;;;;;;5112520;28;20633;-81
2022/12/25 13:07:02;;;;;;;2.30;1.83;;;;;;;;;;5101314;28;20613;-81
2022/12/25 13:09:38;;;;;;;2.73;1.50;;;;;;;;;;5110517;28;20286;-82
2022/12/25 13:12:07;;;;;;;2.47;1.67;;;;;;;;;;5096436;28;20214;-81
2022/12/25 13:14:36;;;;;;;1.40;1.30;;;;;;;;;;5107547;28;20252;-83
2022/12/25 13:17:07;;;;;;;1.63;1.20;;;;;;;;;;5103928;28;20231;-82
2022/12/25 13:19:35;;;;;;;1.63;1.30;;;;;;;;;;5099203;28;20215;-82
2022/12/25 13:22:05;;;;;;;1.13;1.03;;;;;;;;;;5101783;28;20689;-82
2022/12/25 13:24:34;;;;;;;1.20;1.20;;;;;;;;;;5104125;28;20258;-81
2022/12/25 13:27:01;;;;;;;4.00;1.87;;;;;;;;;;5099526;28;20257;-82
2022/12/25 13:29:31;;;;;;;1.63;1.53;;;;;;;;;;5103368;28;20204;-82
2022/12/25 13:31:59;;;;;;;2.90;1.50;;;;;;;;;;5099454;28;20204;-82
2022/12/25 13:34:31;;;;;;;3.07;1.43;;;;;;;;;;5103366;28;20204;-81
2022/12/25 13:36:59;;;;;;;1.97;1.53;;;;;;;;;;5108821;28;20231;-81
2022/12/25 13:39:26;;;;;;;3.37;2.03;;;;;;;;;;5111390;28;20207;-81
2022/12/25 13:42:04;;;;;;;4.30;2.83;;;;;;;;;;5099892;27;20266;-81
2022/12/25 13:44:47;;;;;;;1.97;1.80;;;;;;;;;;5105516;28;20304;-81
2022/12/25 13:47:22;;;;;;;3.07;2.77;;;;;;;;;;5097298;28;20215;-82
2022/12/25 13:49:50;;;;;;;1.50;1.40;;;;;;;;;;5110072;27;20203;-82
2022/12/25 13:52:20;;;;;;;2.03;1.40;;;;;;;;;;5116016;27;20201;-82
2022/12/25 13:54:59;;;;;;;2.43;1.70;;;;;;;;;;5111258;28;20209;-82
2022/12/25 13:57:31;;;;;;;4.10;2.83;;;;;;;;;;5104396;28;20267;-82
2022/12/25 14:00:01;;;;;;;4.83;3.37;;;;;;;;;;5112702;27;20198;-81
2022/12/25 14:02:31;;;;;;;5.07;4.60;;;;;;;;;;5090443;28;20200;-82
2022/12/25 14:04:58;;;;;;;3.30;2.93;;;;;;;;;;5105357;28;20200;-82
2022/12/25 14:07:28;;;;;;;4.33;2.33;;;;;;;;;;5111326;28;20203;-82
2022/12/25 14:09:59;;;;;;;4.00;2.83;;;;;;;;;;5111056;28;20225;-81
2022/12/25 14:12:26;;;;;;;3.80;2.20;;;;;;;;;;5111152;28;20215;-81
2022/12/25 14:14:53;;;;;;;2.30;1.90;;;;;;;;;;5109328;28;20212;-81
2022/12/25 14:17:22;;;;;;;5.10;4.17;;;;;;;;;;5110925;28;20267;-81
2022/12/25 14:19:56;;;;;;;2.10;1.90;;;;;;;;;;5110554;28;20271;-82
2022/12/25 14:22:24;;;;;;;5.67;4.93;;;;;;;;;;5098298;28;20233;-82
2022/12/25 14:24:51;;;;;;;2.47;2.27;;;;;;;;;;5111148;28;20217;-81
2022/12/25 14:27:19;;;;;;;4.70;4.13;;;;;;;;;;5103359;28;20197;-81
2022/12/25 14:29:48;;;;;;;4.87;2.70;;;;;;;;;;5105594;28;20199;-82
2022/12/25 14:32:16;;;;;;;3.93;3.23;;;;;;;;;;5096111;28;20204;-85
2022/12/25 14:34:46;;;;;;;4.90;3.80;;;;;;;;;;5056024;28;20203;-85
2022/12/25 14:37:18;;;;;;;3.03;2.60;;;;;;;;;;5063554;28;20283;-86
2022/12/25 14:39:46;;;;;;;3.47;2.70;;;;;;;;;;5055643;28;20230;-86
2022/12/25 14:42:20;;;;;;;2.20;1.80;;;;;;;;;;5049769;28;21097;-86
2022/12/25 14:44:58;;;;;;;5.07;4.57;;;;;;;;;;5056328;28;20626;-87
2022/12/25 14:47:25;;;;;;;5.47;3.47;;;;;;;;;;5061658;28;20199;-87
2022/12/25 14:49:54;;;;;;;5.50;3.57;;;;;;;;;;5069632;28;21084;-82
2022/12/25 14:52:25;;;;;;;5.47;4.13;;;;;;;;;;5061552;28;20201;-86
2022/12/25 14:54:55;;;;;;;2.87;2.23;;;;;;;;;;5060402;28;20206;-86
2022/12/25 14:57:27;;;;;;;3.47;1.63;;;;;;;;;;5068055;28;20203;-86
2022/12/25 15:00:04;;;;;;;4.10;2.57;;;;;;;;;;5056600;28;20214;-85
2022/12/25 15:02:40;;;;;;;2.90;2.23;;;;;;;;;;5071667;28;20733;-86
2022/12/25 15:05:27;;;;;;;2.83;2.17;;;;;;;;;;5074943;28;20205;-86
2022/12/25 15:08:05;;;;;;;2.57;2.37;;;;;;;;;;5073963;28;20220;-82
2022/12/25 15:10:33;;;;;;;1.60;1.43;;;;;;;;;;5060952;28;20215;-85
2022/12/25 15:13:01;;;;;;;2.70;1.77;;;;;;;;;;5056206;28;20217;-86
2022/12/25 15:15:31;;;;;;;2.13;1.70;;;;;;;;;;5066661;28;20304;-86
2022/12/25 15:17:59;;;;;;;1.97;1.67;;;;;;;;;;5057994;28;20212;-85
2022/12/25 15:20:32;;;;;;;2.67;1.97;;;;;;;;;;5067409;28;20210;-85
2022/12/25 15:23:02;;;;;;;1.87;1.70;;;;;;;;;;5075470;27;20666;-82
2022/12/25 15:25:31;;;;;;;1.50;1.40;;;;;;;;;;5109123;27;20226;-82
2022/12/25 15:27:59;;;;;;;1.97;1.77;;;;;;;;;;5109548;27;20235;-83
2022/12/25 15:30:29;;;;;;;1.83;1.40;;;;;;;;;;5107381;28;20672;-82
2022/12/25 15:32:56;;;;;;;3.87;2.40;;;;;;;;;;5101252;28;20199;-82
2022/12/25 15:35:23;;;;;;;5.83;3.93;;;;;;;;;;5113861;28;20203;-81
2022/12/25 15:37:54;;;;;;;5.33;4.70;;;;;;;;;;5112291;28;20199;-83
2022/12/25 15:40:21;;;;;;;4.60;4.10;;;;;;;;;;5110075;28;20199;-82
2022/12/25 15:42:50;;;;;;;4.60;3.17;;;;;;;;;;5073236;28;20205;-83
2022/12/25 15:45:21;;;;;;;3.57;3.07;;;;;;;;;;5105414;27;20200;-84
2022/12/25 15:47:50;;;;;;;10.37;6.47;;;;;;;;;;5102625;28;20232;-83
2022/12/25 15:50:18;;;;;;;2.83;2.20;;;;;;;;;;5102660;28;20196;-82
2022/12/25 15:52:45;;;;;;;2.17;1.70;;;;;;;;;;5107104;28;20203;-83
2022/12/25 15:55:14;;;;;;;2.17;1.90;;;;;;;;;;5103434;27;20199;-83
2022/12/25 15:57:45;;;;;;;1.90;1.67;;;;;;;;;;5101802;27;20277;-83
2022/12/25 16:00:17;;;;;;;1.93;1.60;;;;;;;;;;5103381;27;20197;-83
2022/12/25 16:02:45;;;;;;;4.80;2.40;;;;;;;;;;5100667;28;20249;-83
2022/12/25 16:05:13;;;;;;;4.07;2.80;;;;;;;;;;5102746;28;20203;-83
2022/12/25 16:07:40;;;;;;;4.00;2.80;;;;;;;;;;5108830;28;20203;-82
2022/12/25 16:10:14;;;;;;;13.37;7.63;;;;;;;;;;5102499;28;20667;-83
2022/12/25 16:12:41;;;;;;;9.73;5.90;;;;;;;;;;5102048;28;20238;-82
2022/12/25 16:15:10;;;;;;;7.33;5.90;;;;;;;;;;5102282;28;20296;-82
2022/12/25 16:17:38;;;;;;;9.00;5.13;;;;;;;;;;5096514;28;20700;-82
2022/12/25 16:20:06;;;;;;;7.83;7.13;;;;;;;;;;5099083;28;20200;-82
2022/12/25 16:22:38;;;;;;;8.73;7.17;;;;;;;;;;5102556;28;20281;-83
2022/12/25 16:25:15;;;;;;;3.97;3.57;;;;;;;;;;5099425;28;20208;-82
2022/12/25 16:27:42;;;;;;;3.83;3.00;;;;;;;;;;5104047;28;20685;-82
2022/12/25 16:30:10;;;;;;;5.47;4.13;;;;;;;;;;5102900;28;20714;-83
2022/12/25 16:32:37;;;;;;;3.10;2.50;;;;;;;;;;5099038;28;20257;-84
2022/12/25 16:35:07;;;;;;;4.70;2.33;;;;;;;;;;5101764;28;20708;-83
2022/12/25 16:37:34;;;;;;;2.80;2.60;;;;;;;;;;5087111;28;20297;-84
2022/12/25 16:40:04;;;;;;;3.57;2.40;;;;;;;;;;5101001;28;20637;-83
2022/12/25 16:42:32;;;;;;;8.43;4.07;;;;;;;;;;5103251;28;20203;-82